Terminal Aerodrome Forecast
Issued by NWS

Home | Current Version | Previous Version | Text Only | Print | Product List | Glossary On
Versions: 1 2 3 4 5 6 7 8 9 10 11 12 13 14 15 16 17 18 19 20 21 22 23 24 25
553
FTUS43 KGRR 221742
TAFJXN
TAF
KJXN 221742Z 2218/2318 26015G22KT P6SM FEW035
     FM222300 22008KT P6SM SCT080
     FM231000 19007KT P6SM VCSH OVC070=

USA.gov is the U.S. government's official web portal to all federal, state and local government web resources and services.